sensor_id;sensor_type;location;lat;lon;timestamp;temperature;humidity
39347;DHT22;26262;49.836;6.632;2023-01-01T00:01:27;7.40;99.90
39347;DHT22;26262;49.836;6.632;2023-01-01T00:03:55;7.50;99.90
39347;DHT22;26262;49.836;6.632;2023-01-01T00:06:22;7.60;99.90
39347;DHT22;26262;49.836;6.632;2023-01-01T00:08:48;7.70;99.90
39347;DHT22;26262;49.836;6.632;2023-01-01T00:11:34;7.60;99.90
39347;DHT22;26262;49.836;6.632;2023-01-01T00:13:59;7.70;99.90
39347;DHT22;26262;49.836;6.632;2023-01-01T00:16:25;7.80;99.90
39347;DHT22;26262;49.836;6.632;2023-01-01T00:18:50;7.80;99.90
39347;DHT22;26262;49.836;6.632;2023-01-01T00:21:16;7.90;99.90
39347;DHT22;26262;49.836;6.632;2023-01-01T00:23:42;8.00;99.90
39347;DHT22;26262;49.836;6.632;2023-01-01T00:26:12;7.90;99.90
39347;DHT22;26262;49.836;6.632;2023-01-01T00:28:38;8.00;99.90
39347;DHT22;26262;49.836;6.632;2023-01-01T00:31:14;8.00;99.90
39347;DHT22;26262;49.836;6.632;2023-01-01T00:33:41;8.00;99.90
39347;DHT22;26262;49.836;6.632;2023-01-01T00:36:08;8.00;99.90
39347;DHT22;26262;49.836;6.632;2023-01-01T00:38:34;8.00;99.90
39347;DHT22;26262;49.836;6.632;2023-01-01T00:41:00;8.00;99.90
39347;DHT22;26262;49.836;6.632;2023-01-01T00:43:26;8.00;99.90
39347;DHT22;26262;49.836;6.632;2023-01-01T00:45:51;8.00;99.90
39347;DHT22;26262;49.836;6.632;2023-01-01T00:48:17;7.90;99.90
39347;DHT22;26262;49.836;6.632;2023-01-01T00:50:44;8.00;99.90
39347;DHT22;26262;49.836;6.632;2023-01-01T00:53:09;8.00;99.90
39347;DHT22;26262;49.836;6.632;2023-01-01T00:55:35;7.90;99.90
39347;DHT22;26262;49.836;6.632;2023-01-01T00:58:00;8.00;99.90
39347;DHT22;26262;49.836;6.632;2023-01-01T01:00:26;8.00;99.90
39347;DHT22;26262;49.836;6.632;2023-01-01T01:02:52;8.00;99.90
39347;DHT22;26262;49.836;6.632;2023-01-01T01:05:18;8.00;99.90
39347;DHT22;26262;49.836;6.632;2023-01-01T01:07:43;8.00;99.90
39347;DHT22;26262;49.836;6.632;2023-01-01T01:10:09;8.10;99.90
39347;DHT22;26262;49.836;6.632;2023-01-01T01:12:36;8.00;99.90
39347;DHT22;26262;49.836;6.632;2023-01-01T01:15:03;8.00;99.90
39347;DHT22;26262;49.836;6.632;2023-01-01T01:17:28;7.90;99.90
39347;DHT22;26262;49.836;6.632;2023-01-01T01:19:54;7.90;99.90
39347;DHT22;26262;49.836;6.632;2023-01-01T01:22:20;7.90;99.90
39347;DHT22;26262;49.836;6.632;2023-01-01T01:24:45;8.00;99.90
39347;DHT22;26262;49.836;6.632;2023-01-01T01:27:11;7.90;99.90
39347;DHT22;26262;49.836;6.632;2023-01-01T01:29:36;7.80;99.90
39347;DHT22;26262;49.836;6.632;2023-01-01T01:32:02;7.90;99.90
39347;DHT22;26262;49.836;6.632;2023-01-01T01:34:27;7.80;99.90
39347;DHT22;26262;49.836;6.632;2023-01-01T01:36:53;7.80;99.90
39347;DHT22;26262;49.836;6.632;2023-01-01T01:39:18;7.70;99.90
39347;DHT22;26262;49.836;6.632;2023-01-01T01:41:44;7.80;99.90
39347;DHT22;26262;49.836;6.632;2023-01-01T01:53:25;7.80;99.90
39347;DHT22;26262;49.836;6.632;2023-01-01T01:55:34;7.90;99.90
39347;DHT22;26262;49.836;6.632;2023-01-01T01:58:01;7.80;99.90
39347;DHT22;26262;49.836;6.632;2023-01-01T02:00:28;7.70;99.90
39347;DHT22;26262;49.836;6.632;2023-01-01T02:02:58;7.70;99.90
39347;DHT22;26262;49.836;6.632;2023-01-01T02:05:26;7.80;99.90
39347;DHT22;26262;49.836;6.632;2023-01-01T02:07:52;7.70;99.90
39347;DHT22;26262;49.836;6.632;2023-01-01T02:10:19;7.70;99.90
39347;DHT22;26262;49.836;6.632;2023-01-01T02:12:45;7.80;99.90
39347;DHT22;26262;49.836;6.632;2023-01-01T02:15:11;7.70;99.90
39347;DHT22;26262;49.836;6.632;2023-01-01T02:20:36;7.60;99.90
39347;DHT22;26262;49.836;6.632;2023-01-01T02:28:47;7.50;99.90
39347;DHT22;26262;49.836;6.632;2023-01-01T02:31:19;7.50;99.90
39347;DHT22;26262;49.836;6.632;2023-01-01T02:33:46;7.60;99.90
39347;DHT22;26262;49.836;6.632;2023-01-01T02:36:13;7.60;99.90
39347;DHT22;26262;49.836;6.632;2023-01-01T02:38:44;7.60;99.90
39347;DHT22;26262;49.836;6.632;2023-01-01T02:41:19;7.60;99.90
39347;DHT22;26262;49.836;6.632;2023-01-01T02:43:46;7.60;99.90
39347;DHT22;26262;49.836;6.632;2023-01-01T02:46:12;7.60;99.90
39347;DHT22;26262;49.836;6.632;2023-01-01T02:48:44;7.60;99.90
39347;DHT22;26262;49.836;6.632;2023-01-01T03:00:00;7.60;99.90
39347;DHT22;26262;49.836;6.632;2023-01-01T03:12:16;7.70;99.90
39347;DHT22;26262;49.836;6.632;2023-01-01T03:14:55;7.70;99.90
39347;DHT22;26262;49.836;6.632;2023-01-01T03:17:36;7.80;99.90
39347;DHT22;26262;49.836;6.632;2023-01-01T03:20:12;7.80;99.90
39347;DHT22;26262;49.836;6.632;2023-01-01T03:22:40;7.80;99.90
39347;DHT22;26262;49.836;6.632;2023-01-01T03:25:19;7.90;99.90
39347;DHT22;26262;49.836;6.632;2023-01-01T03:27:49;7.80;99.90
39347;DHT22;26262;49.836;6.632;2023-01-01T03:30:17;7.80;99.90
39347;DHT22;26262;49.836;6.632;2023-01-01T03:33:21;7.80;99.90
39347;DHT22;26262;49.836;6.632;2023-01-01T03:35:52;7.80;99.90
39347;DHT22;26262;49.836;6.632;2023-01-01T03:38:33;7.80;99.90
39347;DHT22;26262;49.836;6.632;2023-01-01T03:41:13;7.80;99.90
39347;DHT22;26262;49.836;6.632;2023-01-01T03:43:51;7.80;99.90
39347;DHT22;26262;49.836;6.632;2023-01-01T03:46:24;7.80;99.90
39347;DHT22;26262;49.836;6.632;2023-01-01T03:48:51;7.80;99.90
39347;DHT22;26262;49.836;6.632;2023-01-01T03:57:06;7.60;99.90
39347;DHT22;26262;49.836;6.632;2023-01-01T03:59:42;7.50;99.90
39347;DHT22;26262;49.836;6.632;2023-01-01T04:02:11;7.50;99.90
39347;DHT22;26262;49.836;6.632;2023-01-01T04:04:38;7.60;99.90
39347;DHT22;26262;49.836;6.632;2023-01-01T04:07:03;7.50;99.90
39347;DHT22;26262;49.836;6.632;2023-01-01T04:09:31;7.50;99.90
39347;DHT22;26262;49.836;6.632;2023-01-01T04:11:58;7.60;99.90
39347;DHT22;26262;49.836;6.632;2023-01-01T04:14:40;7.70;99.90
39347;DHT22;26262;49.836;6.632;2023-01-01T04:17:07;7.60;99.90
39347;DHT22;26262;49.836;6.632;2023-01-01T04:19:33;7.70;99.90
39347;DHT22;26262;49.836;6.632;2023-01-01T04:21:59;7.70;99.90
39347;DHT22;26262;49.836;6.632;2023-01-01T04:24:25;7.70;99.90
39347;DHT22;26262;49.836;6.632;2023-01-01T04:26:51;7.70;99.90
39347;DHT22;26262;49.836;6.632;2023-01-01T04:29:17;7.70;99.90
39347;DHT22;26262;49.836;6.632;2023-01-01T04:31:44;7.70;99.90
39347;DHT22;26262;49.836;6.632;2023-01-01T04:34:09;7.70;99.90
39347;DHT22;26262;49.836;6.632;2023-01-01T04:36:35;7.70;99.90
39347;DHT22;26262;49.836;6.632;2023-01-01T04:39:01;7.70;99.90
39347;DHT22;26262;49.836;6.632;2023-01-01T04:41:27;7.70;99.90
39347;DHT22;26262;49.836;6.632;2023-01-01T04:43:52;7.70;99.90
39347;DHT22;26262;49.836;6.632;2023-01-01T04:46:19;7.80;99.90
39347;DHT22;26262;49.836;6.632;2023-01-01T04:48:46;7.80;99.90
39347;DHT22;26262;49.836;6.632;2023-01-01T04:51:12;7.80;99.90
39347;DHT22;26262;49.836;6.632;2023-01-01T04:53:39;7.80;99.90
39347;DHT22;26262;49.836;6.632;2023-01-01T04:56:10;7.80;99.90
39347;DHT22;26262;49.836;6.632;2023-01-01T04:58:37;7.90;99.90
39347;DHT22;26262;49.836;6.632;2023-01-01T05:01:04;7.90;99.90
39347;DHT22;26262;49.836;6.632;2023-01-01T05:03:30;7.80;99.90
39347;DHT22;26262;49.836;6.632;2023-01-01T05:06:07;7.80;99.90
39347;DHT22;26262;49.836;6.632;2023-01-01T05:08:36;7.90;99.90
39347;DHT22;26262;49.836;6.632;2023-01-01T05:11:11;7.90;99.90
39347;DHT22;26262;49.836;6.632;2023-01-01T05:13:39;7.80;99.90
39347;DHT22;26262;49.836;6.632;2023-01-01T05:16:07;7.80;99.90
39347;DHT22;26262;49.836;6.632;2023-01-01T05:18:34;7.80;99.90
39347;DHT22;26262;49.836;6.632;2023-01-01T05:21:04;7.80;99.90
39347;DHT22;26262;49.836;6.632;2023-01-01T05:23:30;7.80;99.90
39347;DHT22;26262;49.836;6.632;2023-01-01T05:25:56;7.90;99.90
39347;DHT22;26262;49.836;6.632;2023-01-01T05:28:22;7.80;99.90
39347;DHT22;26262;49.836;6.632;2023-01-01T05:30:49;7.80;99.90
39347;DHT22;26262;49.836;6.632;2023-01-01T05:33:15;7.80;99.90
39347;DHT22;26262;49.836;6.632;2023-01-01T05:35:40;7.70;99.90
39347;DHT22;26262;49.836;6.632;2023-01-01T05:38:06;7.70;99.90
39347;DHT22;26262;49.836;6.632;2023-01-01T05:40:31;7.70;99.90
39347;DHT22;26262;49.836;6.632;2023-01-01T05:42:57;7.80;99.90
39347;DHT22;26262;49.836;6.632;2023-01-01T05:45:22;7.70;99.90
39347;DHT22;26262;49.836;6.632;2023-01-01T05:47:48;7.70;99.90
39347;DHT22;26262;49.836;6.632;2023-01-01T05:50:13;7.60;99.90
39347;DHT22;26262;49.836;6.632;2023-01-01T05:52:39;7.70;99.90
39347;DHT22;26262;49.836;6.632;2023-01-01T05:55:05;7.60;99.90
39347;DHT22;26262;49.836;6.632;2023-01-01T05:57:31;7.60;99.90
39347;DHT22;26262;49.836;6.632;2023-01-01T05:59:56;7.70;99.90
39347;DHT22;26262;49.836;6.632;2023-01-01T06:02:22;7.70;99.90
39347;DHT22;26262;49.836;6.632;2023-01-01T06:04:48;7.70;99.90
39347;DHT22;26262;49.836;6.632;2023-01-01T06:07:13;7.80;99.90
39347;DHT22;26262;49.836;6.632;2023-01-01T06:09:39;7.90;99.90
39347;DHT22;26262;49.836;6.632;2023-01-01T06:12:05;8.00;99.90
39347;DHT22;26262;49.836;6.632;2023-01-01T06:14:30;8.10;99.90
39347;DHT22;26262;49.836;6.632;2023-01-01T06:16:56;8.10;99.90
39347;DHT22;26262;49.836;6.632;2023-01-01T06:19:21;8.20;99.90
39347;DHT22;26262;49.836;6.632;2023-01-01T06:21:47;8.30;99.90
39347;DHT22;26262;49.836;6.632;2023-01-01T06:24:12;8.30;99.90
39347;DHT22;26262;49.836;6.632;2023-01-01T06:26:38;8.30;99.90
39347;DHT22;26262;49.836;6.632;2023-01-01T06:29:03;8.30;99.90
39347;DHT22;26262;49.836;6.632;2023-01-01T06:31:29;8.20;99.90
39347;DHT22;26262;49.836;6.632;2023-01-01T06:33:55;8.20;99.90
39347;DHT22;26262;49.836;6.632;2023-01-01T06:36:23;8.20;99.90
39347;DHT22;26262;49.836;6.632;2023-01-01T06:38:50;8.10;99.90
39347;DHT22;26262;49.836;6.632;2023-01-01T06:41:18;8.10;99.90
39347;DHT22;26262;49.836;6.632;2023-01-01T06:43:44;8.10;99.90
39347;DHT22;26262;49.836;6.632;2023-01-01T06:48:42;8.10;99.90
39347;DHT22;26262;49.836;6.632;2023-01-01T06:51:14;8.10;99.90
39347;DHT22;26262;49.836;6.632;2023-01-01T06:53:40;8.10;99.90
39347;DHT22;26262;49.836;6.632;2023-01-01T06:56:06;8.10;99.90
39347;DHT22;26262;49.836;6.632;2023-01-01T06:58:32;8.10;99.90
39347;DHT22;26262;49.836;6.632;2023-01-01T07:01:05;8.10;99.90
39347;DHT22;26262;49.836;6.632;2023-01-01T07:03:31;8.10;99.90
39347;DHT22;26262;49.836;6.632;2023-01-01T07:05:57;8.10;99.90
39347;DHT22;26262;49.836;6.632;2023-01-01T07:08:23;8.20;99.90
39347;DHT22;26262;49.836;6.632;2023-01-01T07:10:48;8.30;99.90
39347;DHT22;26262;49.836;6.632;2023-01-01T07:13:14;8.30;99.90
39347;DHT22;26262;49.836;6.632;2023-01-01T07:15:39;8.40;99.90
39347;DHT22;26262;49.836;6.632;2023-01-01T07:18:05;8.40;99.90
39347;DHT22;26262;49.836;6.632;2023-01-01T07:20:30;8.40;99.90
39347;DHT22;26262;49.836;6.632;2023-01-01T07:22:56;8.50;99.90
39347;DHT22;26262;49.836;6.632;2023-01-01T07:25:21;8.50;99.90
39347;DHT22;26262;49.836;6.632;2023-01-01T07:27:47;8.60;99.90
39347;DHT22;26262;49.836;6.632;2023-01-01T07:30:12;8.60;99.90
39347;DHT22;26262;49.836;6.632;2023-01-01T07:32:38;8.60;99.90
39347;DHT22;26262;49.836;6.632;2023-01-01T07:35:04;8.70;99.90
39347;DHT22;26262;49.836;6.632;2023-01-01T07:37:29;8.70;99.90
39347;DHT22;26262;49.836;6.632;2023-01-01T07:39:55;8.70;99.90
39347;DHT22;26262;49.836;6.632;2023-01-01T07:42:20;8.70;99.90
39347;DHT22;26262;49.836;6.632;2023-01-01T07:44:46;8.80;99.90
39347;DHT22;26262;49.836;6.632;2023-01-01T07:47:30;8.80;99.90
39347;DHT22;26262;49.836;6.632;2023-01-01T07:49:55;8.90;99.90
39347;DHT22;26262;49.836;6.632;2023-01-01T07:52:21;8.90;99.90
39347;DHT22;26262;49.836;6.632;2023-01-01T07:54:46;9.00;99.90
39347;DHT22;26262;49.836;6.632;2023-01-01T07:57:12;9.10;99.90
39347;DHT22;26262;49.836;6.632;2023-01-01T07:59:37;9.10;99.90
39347;DHT22;26262;49.836;6.632;2023-01-01T08:02:03;9.20;99.90
39347;DHT22;26262;49.836;6.632;2023-01-01T08:04:29;9.20;99.90
39347;DHT22;26262;49.836;6.632;2023-01-01T08:06:55;9.30;99.90
39347;DHT22;26262;49.836;6.632;2023-01-01T08:09:20;9.30;99.90
39347;DHT22;26262;49.836;6.632;2023-01-01T08:11:46;9.30;99.90
39347;DHT22;26262;49.836;6.632;2023-01-01T08:14:12;9.50;99.90
39347;DHT22;26262;49.836;6.632;2023-01-01T08:16:37;9.60;99.90
39347;DHT22;26262;49.836;6.632;2023-01-01T08:19:03;9.70;99.90
39347;DHT22;26262;49.836;6.632;2023-01-01T08:21:29;9.70;99.90
39347;DHT22;26262;49.836;6.632;2023-01-01T08:23:55;9.90;99.90
39347;DHT22;26262;49.836;6.632;2023-01-01T08:26:29;9.90;99.90
39347;DHT22;26262;49.836;6.632;2023-01-01T08:28:55;9.90;99.90
39347;DHT22;26262;49.836;6.632;2023-01-01T08:31:21;10.00;99.90
39347;DHT22;26262;49.836;6.632;2023-01-01T08:33:46;10.10;99.90
39347;DHT22;26262;49.836;6.632;2023-01-01T08:36:13;10.30;99.90
39347;DHT22;26262;49.836;6.632;2023-01-01T08:38:39;10.30;99.90
39347;DHT22;26262;49.836;6.632;2023-01-01T08:41:04;10.50;99.90
39347;DHT22;26262;49.836;6.632;2023-01-01T08:43:30;10.50;99.90
39347;DHT22;26262;49.836;6.632;2023-01-01T08:45:55;10.50;99.90
39347;DHT22;26262;49.836;6.632;2023-01-01T08:48:21;10.50;99.90
39347;DHT22;26262;49.836;6.632;2023-01-01T08:50:57;10.40;99.90
39347;DHT22;26262;49.836;6.632;2023-01-01T08:53:26;10.40;99.90
39347;DHT22;26262;49.836;6.632;2023-01-01T08:58:22;10.50;99.90
39347;DHT22;26262;49.836;6.632;2023-01-01T09:00:47;10.70;99.90
39347;DHT22;26262;49.836;6.632;2023-01-01T09:03:13;10.70;99.90
39347;DHT22;26262;49.836;6.632;2023-01-01T09:05:38;10.70;99.90
39347;DHT22;26262;49.836;6.632;2023-01-01T09:08:04;10.70;99.90
39347;DHT22;26262;49.836;6.632;2023-01-01T09:10:29;10.70;99.90
39347;DHT22;26262;49.836;6.632;2023-01-01T09:12:55;10.70;99.90
39347;DHT22;26262;49.836;6.632;2023-01-01T09:15:20;10.70;99.90
39347;DHT22;26262;49.836;6.632;2023-01-01T09:17:46;10.70;99.90
39347;DHT22;26262;49.836;6.632;2023-01-01T09:20:11;10.80;99.90
39347;DHT22;26262;49.836;6.632;2023-01-01T09:22:37;10.80;99.90
39347;DHT22;26262;49.836;6.632;2023-01-01T09:25:02;10.80;99.90
39347;DHT22;26262;49.836;6.632;2023-01-01T09:27:28;10.80;99.90
39347;DHT22;26262;49.836;6.632;2023-01-01T09:29:54;10.80;99.90
39347;DHT22;26262;49.836;6.632;2023-01-01T09:32:19;10.80;99.90
39347;DHT22;26262;49.836;6.632;2023-01-01T09:34:45;10.80;99.90
39347;DHT22;26262;49.836;6.632;2023-01-01T09:37:10;10.80;99.90
39347;DHT22;26262;49.836;6.632;2023-01-01T09:39:36;10.80;99.90
39347;DHT22;26262;49.836;6.632;2023-01-01T09:47:33;11.30;99.90
39347;DHT22;26262;49.836;6.632;2023-01-01T09:50:04;11.30;99.90
39347;DHT22;26262;49.836;6.632;2023-01-01T09:52:44;11.20;99.90
39347;DHT22;26262;49.836;6.632;2023-01-01T09:55:42;11.20;99.90
39347;DHT22;26262;49.836;6.632;2023-01-01T09:58:10;11.20;99.90
39347;DHT22;26262;49.836;6.632;2023-01-01T10:00:38;11.20;99.90
39347;DHT22;26262;49.836;6.632;2023-01-01T10:16:02;11.20;99.90
39347;DHT22;26262;49.836;6.632;2023-01-01T10:18:31;11.20;99.90
39347;DHT22;26262;49.836;6.632;2023-01-01T10:23:42;11.20;99.90
39347;DHT22;26262;49.836;6.632;2023-01-01T10:26:14;11.20;99.90
39347;DHT22;26262;49.836;6.632;2023-01-01T10:31:37;11.20;99.90
39347;DHT22;26262;49.836;6.632;2023-01-01T10:36:44;11.20;99.90
39347;DHT22;26262;49.836;6.632;2023-01-01T10:39:17;11.10;99.90
39347;DHT22;26262;49.836;6.632;2023-01-01T10:41:46;11.20;99.90
39347;DHT22;26262;49.836;6.632;2023-01-01T10:44:14;11.10;99.90
39347;DHT22;26262;49.836;6.632;2023-01-01T10:46:41;11.10;99.90
39347;DHT22;26262;49.836;6.632;2023-01-01T10:49:11;11.10;99.90
39347;DHT22;26262;49.836;6.632;2023-01-01T10:51:41;11.10;99.90
39347;DHT22;26262;49.836;6.632;2023-01-01T10:54:31;11.10;99.90
39347;DHT22;26262;49.836;6.632;2023-01-01T10:56:58;11.20;99.90
39347;DHT22;26262;49.836;6.632;2023-01-01T10:59:39;11.20;99.90
39347;DHT22;26262;49.836;6.632;2023-01-01T11:02:24;11.30;99.90
39347;DHT22;26262;49.836;6.632;2023-01-01T11:04:51;11.20;99.90
39347;DHT22;26262;49.836;6.632;2023-01-01T11:09:49;11.40;99.90
39347;DHT22;26262;49.836;6.632;2023-01-01T11:12:20;11.40;99.90
39347;DHT22;26262;49.836;6.632;2023-01-01T11:14:56;11.40;99.90
39347;DHT22;26262;49.836;6.632;2023-01-01T11:17:26;11.60;99.90
39347;DHT22;26262;49.836;6.632;2023-01-01T11:19:53;11.70;99.90
39347;DHT22;26262;49.836;6.632;2023-01-01T11:22:41;11.70;99.90
39347;DHT22;26262;49.836;6.632;2023-01-01T11:25:23;11.90;99.90
39347;DHT22;26262;49.836;6.632;2023-01-01T11:27:51;12.10;99.90
39347;DHT22;26262;49.836;6.632;2023-01-01T11:30:23;12.10;99.90
39347;DHT22;26262;49.836;6.632;2023-01-01T11:32:52;12.10;99.90
39347;DHT22;26262;49.836;6.632;2023-01-01T11:35:20;12.10;99.90
39347;DHT22;26262;49.836;6.632;2023-01-01T11:37:48;12.10;99.90
39347;DHT22;26262;49.836;6.632;2023-01-01T11:40:24;12.30;99.90
39347;DHT22;26262;49.836;6.632;2023-01-01T11:42:59;12.40;99.90
39347;DHT22;26262;49.836;6.632;2023-01-01T11:45:38;12.40;99.90
39347;DHT22;26262;49.836;6.632;2023-01-01T11:48:25;12.40;99.90
39347;DHT22;26262;49.836;6.632;2023-01-01T11:50:57;12.30;99.90
39347;DHT22;26262;49.836;6.632;2023-01-01T12:04:05;12.30;99.90
39347;DHT22;26262;49.836;6.632;2023-01-01T12:06:48;12.30;99.90
39347;DHT22;26262;49.836;6.632;2023-01-01T12:12:10;12.20;99.90
39347;DHT22;26262;49.836;6.632;2023-01-01T12:14:56;12.20;99.90
39347;DHT22;26262;49.836;6.632;2023-01-01T12:17:30;12.20;99.90
39347;DHT22;26262;49.836;6.632;2023-01-01T12:22:35;12.10;99.90
39347;DHT22;26262;49.836;6.632;2023-01-01T12:25:02;12.10;99.90
39347;DHT22;26262;49.836;6.632;2023-01-01T12:27:54;12.00;99.90
39347;DHT22;26262;49.836;6.632;2023-01-01T12:30:22;12.00;99.90
39347;DHT22;26262;49.836;6.632;2023-01-01T12:38:33;12.00;99.90
39347;DHT22;26262;49.836;6.632;2023-01-01T12:43:55;12.00;99.90
39347;DHT22;26262;49.836;6.632;2023-01-01T12:49:35;12.00;99.90
39347;DHT22;26262;49.836;6.632;2023-01-01T12:58:10;12.10;99.90
39347;DHT22;26262;49.836;6.632;2023-01-01T13:00:38;12.00;99.90
39347;DHT22;26262;49.836;6.632;2023-01-01T13:03:14;12.00;99.90
39347;DHT22;26262;49.836;6.632;2023-01-01T13:05:48;12.00;99.90
39347;DHT22;26262;49.836;6.632;2023-01-01T13:08:14;12.10;99.90
39347;DHT22;26262;49.836;6.632;2023-01-01T13:10:45;12.00;99.90
39347;DHT22;26262;49.836;6.632;2023-01-01T13:13:12;12.00;99.90
39347;DHT22;26262;49.836;6.632;2023-01-01T13:18:28;12.00;99.90
39347;DHT22;26262;49.836;6.632;2023-01-01T13:23:42;12.00;99.90
39347;DHT22;26262;49.836;6.632;2023-01-01T13:31:08;12.00;99.90
39347;DHT22;26262;49.836;6.632;2023-01-01T13:33:34;12.00;99.90
39347;DHT22;26262;49.836;6.632;2023-01-01T13:38:57;12.00;99.90
39347;DHT22;26262;49.836;6.632;2023-01-01T13:51:50;11.80;99.90
39347;DHT22;26262;49.836;6.632;2023-01-01T14:02:56;11.70;99.90
39347;DHT22;26262;49.836;6.632;2023-01-01T14:07:58;11.60;99.90
39347;DHT22;26262;49.836;6.632;2023-01-01T14:10:35;11.70;99.90
39347;DHT22;26262;49.836;6.632;2023-01-01T14:15:50;11.60;99.90
39347;DHT22;26262;49.836;6.632;2023-01-01T14:18:17;11.60;99.90
39347;DHT22;26262;49.836;6.632;2023-01-01T14:20:50;11.60;99.90
39347;DHT22;26262;49.836;6.632;2023-01-01T14:23:19;11.50;99.90
39347;DHT22;26262;49.836;6.632;2023-01-01T14:25:47;11.50;99.90
39347;DHT22;26262;49.836;6.632;2023-01-01T14:28:24;11.40;99.90
39347;DHT22;26262;49.836;6.632;2023-01-01T14:30:51;11.40;99.90
39347;DHT22;26262;49.836;6.632;2023-01-01T14:33:23;11.40;99.90
39347;DHT22;26262;49.836;6.632;2023-01-01T14:35:58;11.30;99.90
39347;DHT22;26262;49.836;6.632;2023-01-01T14:38:32;11.30;99.90
39347;DHT22;26262;49.836;6.632;2023-01-01T14:41:18;11.30;99.90
39347;DHT22;26262;49.836;6.632;2023-01-01T14:43:45;11.20;99.90
39347;DHT22;26262;49.836;6.632;2023-01-01T14:46:16;11.10;99.90
39347;DHT22;26262;49.836;6.632;2023-01-01T14:48:48;11.20;99.90
39347;DHT22;26262;49.836;6.632;2023-01-01T14:51:17;11.20;99.90
39347;DHT22;26262;49.836;6.632;2023-01-01T14:53:44;11.10;99.90
39347;DHT22;26262;49.836;6.632;2023-01-01T14:56:35;11.20;99.90
39347;DHT22;26262;49.836;6.632;2023-01-01T15:02:01;11.20;99.90
39347;DHT22;26262;49.836;6.632;2023-01-01T15:04:28;11.20;99.90
39347;DHT22;26262;49.836;6.632;2023-01-01T15:06:58;11.30;99.90
39347;DHT22;26262;49.836;6.632;2023-01-01T15:09:28;11.30;99.90
39347;DHT22;26262;49.836;6.632;2023-01-01T15:11:55;11.30;99.90
39347;DHT22;26262;49.836;6.632;2023-01-01T15:14:39;11.20;99.90
39347;DHT22;26262;49.836;6.632;2023-01-01T15:17:12;11.20;99.90
39347;DHT22;26262;49.836;6.632;2023-01-01T15:19:40;11.20;99.90
39347;DHT22;26262;49.836;6.632;2023-01-01T15:22:28;11.20;99.90
39347;DHT22;26262;49.836;6.632;2023-01-01T15:24:59;11.10;99.90
39347;DHT22;26262;49.836;6.632;2023-01-01T15:27:27;11.10;99.90
39347;DHT22;26262;49.836;6.632;2023-01-01T15:29:54;11.20;99.90
39347;DHT22;26262;49.836;6.632;2023-01-01T15:32:26;11.20;99.90
39347;DHT22;26262;49.836;6.632;2023-01-01T15:35:01;11.10;99.90
39347;DHT22;26262;49.836;6.632;2023-01-01T15:37:55;11.00;99.90
39347;DHT22;26262;49.836;6.632;2023-01-01T15:45:28;10.80;99.90
39347;DHT22;26262;49.836;6.632;2023-01-01T15:53:25;10.80;99.90
39347;DHT22;26262;49.836;6.632;2023-01-01T15:56:25;10.70;99.90
39347;DHT22;26262;49.836;6.632;2023-01-01T15:58:59;10.80;99.90
39347;DHT22;26262;49.836;6.632;2023-01-01T16:01:28;10.70;99.90
39347;DHT22;26262;49.836;6.632;2023-01-01T16:04:09;10.60;99.90
39347;DHT22;26262;49.836;6.632;2023-01-01T16:06:46;10.60;99.90
39347;DHT22;26262;49.836;6.632;2023-01-01T16:09:16;10.50;99.90
39347;DHT22;26262;49.836;6.632;2023-01-01T16:11:42;10.60;99.90
39347;DHT22;26262;49.836;6.632;2023-01-01T16:14:08;10.60;99.90
39347;DHT22;26262;49.836;6.632;2023-01-01T16:16:36;10.70;99.90
39347;DHT22;26262;49.836;6.632;2023-01-01T16:19:02;10.50;99.90
39347;DHT22;26262;49.836;6.632;2023-01-01T16:21:30;10.50;99.90
39347;DHT22;26262;49.836;6.632;2023-01-01T16:23:57;10.40;99.90
39347;DHT22;26262;49.836;6.632;2023-01-01T16:26:23;10.50;99.90
39347;DHT22;26262;49.836;6.632;2023-01-01T16:28:49;10.50;99.90
39347;DHT22;26262;49.836;6.632;2023-01-01T16:31:19;10.60;99.90
39347;DHT22;26262;49.836;6.632;2023-01-01T16:33:53;10.50;99.90
39347;DHT22;26262;49.836;6.632;2023-01-01T16:36:19;10.50;99.90
39347;DHT22;26262;49.836;6.632;2023-01-01T16:38:44;10.60;99.90
39347;DHT22;26262;49.836;6.632;2023-01-01T16:41:13;10.60;99.90
39347;DHT22;26262;49.836;6.632;2023-01-01T16:43:39;10.60;99.90
39347;DHT22;26262;49.836;6.632;2023-01-01T16:46:05;10.50;99.90
39347;DHT22;26262;49.836;6.632;2023-01-01T16:48:30;10.50;99.90
39347;DHT22;26262;49.836;6.632;2023-01-01T16:50:56;10.50;99.90
39347;DHT22;26262;49.836;6.632;2023-01-01T16:53:21;10.60;99.90
39347;DHT22;26262;49.836;6.632;2023-01-01T16:55:51;10.60;99.90
39347;DHT22;26262;49.836;6.632;2023-01-01T16:58:18;10.60;99.90
39347;DHT22;26262;49.836;6.632;2023-01-01T17:00:43;10.60;99.90
39347;DHT22;26262;49.836;6.632;2023-01-01T17:03:09;10.60;99.90
39347;DHT22;26262;49.836;6.632;2023-01-01T17:05:35;10.50;99.90
39347;DHT22;26262;49.836;6.632;2023-01-01T17:08:00;10.50;99.90
39347;DHT22;26262;49.836;6.632;2023-01-01T17:10:26;10.50;99.90
39347;DHT22;26262;49.836;6.632;2023-01-01T17:12:52;10.30;99.90
39347;DHT22;26262;49.836;6.632;2023-01-01T17:15:19;10.30;99.90
39347;DHT22;26262;49.836;6.632;2023-01-01T17:17:45;10.10;99.90
39347;DHT22;26262;49.836;6.632;2023-01-01T17:20:11;10.00;99.90
39347;DHT22;26262;49.836;6.632;2023-01-01T17:22:37;10.00;99.90
39347;DHT22;26262;49.836;6.632;2023-01-01T17:25:03;10.10;99.90
39347;DHT22;26262;49.836;6.632;2023-01-01T17:27:28;10.10;99.90
39347;DHT22;26262;49.836;6.632;2023-01-01T17:29:54;10.10;99.90
39347;DHT22;26262;49.836;6.632;2023-01-01T17:32:20;10.10;99.90
39347;DHT22;26262;49.836;6.632;2023-01-01T17:34:45;10.20;99.90
39347;DHT22;26262;49.836;6.632;2023-01-01T17:37:11;10.20;99.90
39347;DHT22;26262;49.836;6.632;2023-01-01T17:39:36;10.20;99.90
39347;DHT22;26262;49.836;6.632;2023-01-01T17:42:02;10.20;99.90
39347;DHT22;26262;49.836;6.632;2023-01-01T17:44:27;10.20;99.90
39347;DHT22;26262;49.836;6.632;2023-01-01T17:46:53;10.20;99.90
39347;DHT22;26262;49.836;6.632;2023-01-01T17:49:19;10.20;99.90
39347;DHT22;26262;49.836;6.632;2023-01-01T17:51:45;10.10;99.90
39347;DHT22;26262;49.836;6.632;2023-01-01T17:54:10;10.10;99.90
39347;DHT22;26262;49.836;6.632;2023-01-01T17:56:38;10.20;99.90
39347;DHT22;26262;49.836;6.632;2023-01-01T17:59:04;10.10;99.90
39347;DHT22;26262;49.836;6.632;2023-01-01T18:01:31;10.10;99.90
39347;DHT22;26262;49.836;6.632;2023-01-01T18:04:02;10.10;99.90
39347;DHT22;26262;49.836;6.632;2023-01-01T18:06:29;10.10;99.90
39347;DHT22;26262;49.836;6.632;2023-01-01T18:08:56;10.00;99.90
39347;DHT22;26262;49.836;6.632;2023-01-01T18:11:22;10.00;99.90
39347;DHT22;26262;49.836;6.632;2023-01-01T18:13:48;9.90;99.90
39347;DHT22;26262;49.836;6.632;2023-01-01T18:16:14;9.90;99.90
39347;DHT22;26262;49.836;6.632;2023-01-01T18:18:40;9.70;99.90
39347;DHT22;26262;49.836;6.632;2023-01-01T18:21:11;9.70;99.90
39347;DHT22;26262;49.836;6.632;2023-01-01T18:23:39;9.80;99.90
39347;DHT22;26262;49.836;6.632;2023-01-01T18:26:08;9.70;99.90
39347;DHT22;26262;49.836;6.632;2023-01-01T18:28:34;9.90;99.90